createdAt,value
2019-03-20T00:00:26.629Z,20.60
2019-03-20T00:02:58.898Z,20.60
2019-03-20T00:05:30.802Z,20.60
2019-03-20T00:08:02.742Z,20.60
2019-03-20T00:10:34.717Z,20.50
2019-03-20T00:13:06.719Z,20.50
2019-03-20T00:15:39.678Z,20.40
2019-03-20T00:18:12.201Z,20.30
2019-03-20T00:20:44.178Z,20.30
2019-03-20T00:23:16.162Z,20.40
2019-03-20T00:25:48.092Z,20.30
2019-03-20T00:28:20.116Z,20.30
2019-03-20T00:30:52.022Z,20.20
2019-03-20T00:33:23.970Z,20.20
2019-03-20T00:35:55.900Z,20.10
2019-03-20T00:38:27.834Z,20.10
2019-03-20T00:40:59.743Z,20.00
2019-03-20T00:43:31.562Z,20.10
2019-03-20T00:46:03.410Z,20.00
2019-03-20T00:48:35.586Z,19.80
2019-03-20T00:51:07.460Z,19.80
2019-03-20T00:53:39.384Z,19.80
2019-03-20T00:56:11.309Z,19.80
2019-03-20T00:58:43.163Z,19.80
2019-03-20T01:01:15.160Z,19.80
2019-03-20T01:03:47.222Z,19.80
2019-03-20T01:06:20.074Z,19.90
2019-03-20T01:08:51.881Z,19.80
2019-03-20T01:11:23.865Z,19.80
2019-03-20T01:13:55.819Z,19.80
2019-03-20T01:16:27.694Z,19.80
2019-03-20T01:18:59.778Z,19.80
2019-03-20T01:21:31.646Z,19.90
2019-03-20T01:24:03.505Z,19.80
2019-03-20T01:26:35.352Z,19.70
2019-03-20T01:29:07.228Z,19.70
2019-03-20T01:31:39.146Z,19.60
2019-03-20T01:34:11.298Z,19.70
2019-03-20T01:36:43.174Z,19.80
2019-03-20T01:39:14.999Z,20.20
2019-03-20T01:41:46.856Z,19.50
2019-03-20T01:44:18.678Z,19.50
2019-03-20T01:46:50.554Z,19.50
2019-03-20T01:49:22.536Z,19.50
2019-03-20T01:51:54.418Z,19.50
2019-03-20T01:54:27.851Z,19.40
2019-03-20T01:56:59.659Z,19.40
2019-03-20T01:59:31.505Z,19.30
2019-03-20T02:02:03.462Z,19.40
2019-03-20T02:04:35.316Z,19.20
2019-03-20T02:07:07.163Z,19.20
2019-03-20T02:09:39.032Z,19.30
2019-03-20T02:12:10.858Z,19.30
2019-03-20T02:14:42.654Z,19.20
2019-03-20T02:17:14.498Z,19.30
2019-03-20T02:19:47.505Z,19.00
2019-03-20T02:22:19.436Z,19.10
2019-03-20T02:24:51.346Z,19.10
2019-03-20T02:27:23.213Z,18.90
2019-03-20T02:29:55.745Z,19.00
2019-03-20T02:32:27.564Z,19.10
2019-03-20T02:34:59.618Z,19.10
2019-03-20T02:37:31.573Z,19.10
2019-03-20T02:40:03.443Z,18.80
2019-03-20T02:42:35.333Z,19.10
2019-03-20T02:45:10.158Z,18.90
2019-03-20T02:47:41.989Z,19.10
2019-03-20T02:50:14.162Z,19.00
2019-03-20T02:52:46.013Z,19.00
2019-03-20T02:55:18.003Z,19.10
2019-03-20T02:57:49.877Z,19.20
2019-03-20T03:00:22.057Z,19.10
2019-03-20T03:02:53.949Z,19.10
2019-03-20T03:05:25.755Z,19.10
2019-03-20T03:07:57.709Z,19.20
2019-03-20T03:10:29.545Z,19.30
2019-03-20T03:13:01.379Z,19.30
2019-03-20T03:15:33.249Z,19.50
2019-03-20T03:18:05.102Z,19.40
2019-03-20T03:20:37.170Z,19.50
2019-03-20T03:23:08.989Z,19.60
2019-03-20T03:25:42.191Z,19.70
2019-03-20T03:28:14.026Z,19.80
2019-03-20T03:30:46.048Z,20.50
2019-03-20T03:33:17.938Z,20.40
2019-03-20T03:35:49.803Z,20.50
2019-03-20T03:38:21.859Z,20.60
2019-03-20T03:40:53.720Z,20.20
2019-03-20T03:43:25.539Z,20.20
2019-03-20T03:45:57.388Z,20.10
2019-03-20T03:48:29.361Z,20.30
2019-03-20T03:51:01.510Z,20.40
2019-03-20T03:53:33.305Z,20.30
2019-03-20T03:56:05.435Z,20.30
2019-03-20T03:58:37.396Z,20.20
2019-03-20T04:01:09.288Z,20.10
2019-03-20T04:03:41.197Z,20.60
2019-03-20T04:06:13.314Z,20.50
2019-03-20T04:08:45.152Z,20.30
2019-03-20T04:11:17.044Z,20.20
2019-03-20T04:13:49.850Z,20.10
2019-03-20T04:16:21.699Z,20.30
2019-03-20T04:18:53.608Z,20.10
2019-03-20T04:21:25.544Z,20.10
2019-03-20T04:23:57.406Z,19.90
2019-03-20T04:26:29.306Z,20.30
2019-03-20T04:29:01.214Z,19.80
2019-03-20T04:31:33.273Z,19.70
2019-03-20T04:34:05.146Z,19.80
2019-03-20T04:36:47.234Z,19.80
2019-03-20T04:39:10.867Z,19.80
2019-03-20T04:41:42.729Z,20.00
2019-03-20T04:44:14.712Z,20.10
2019-03-20T04:46:46.570Z,20.10
2019-03-20T04:49:18.386Z,20.20
2019-03-20T04:51:50.291Z,20.20
2019-03-20T04:54:22.126Z,20.40
2019-03-20T04:56:53.958Z,20.40
2019-03-20T04:59:25.807Z,20.50
2019-03-20T05:01:57.704Z,20.50
2019-03-20T05:04:29.578Z,20.30
2019-03-20T05:07:01.712Z,20.20
2019-03-20T05:09:33.558Z,20.10
2019-03-20T05:12:05.801Z,20.20
2019-03-20T05:14:37.719Z,20.50
2019-03-20T05:17:09.554Z,20.40
2019-03-20T05:19:41.539Z,20.50
2019-03-20T05:22:14.720Z,20.40
2019-03-20T05:24:46.570Z,20.60
2019-03-20T05:27:18.421Z,20.60
2019-03-20T05:29:50.302Z,20.70
2019-03-20T05:32:22.297Z,20.80
2019-03-20T05:34:54.148Z,20.80
2019-03-20T05:37:27.127Z,20.60
2019-03-20T05:39:59.135Z,20.90
2019-03-20T05:42:31.002Z,20.90
2019-03-20T05:45:02.888Z,21.00
2019-03-20T05:47:35.081Z,20.80
2019-03-20T05:50:07.990Z,21.00
2019-03-20T05:52:40.161Z,20.90
2019-03-20T05:55:14.531Z,20.80
2019-03-20T05:57:46.363Z,21.00
2019-03-20T06:00:18.817Z,21.00
2019-03-20T06:02:50.608Z,21.00
2019-03-20T06:05:22.448Z,21.00
2019-03-20T06:07:54.565Z,21.00
2019-03-20T06:10:26.402Z,21.00
2019-03-20T06:12:58.238Z,21.10
2019-03-20T06:15:30.076Z,21.30
2019-03-20T06:18:01.929Z,21.20
2019-03-20T06:20:34.066Z,21.40
2019-03-20T06:23:06.234Z,21.50
2019-03-20T06:25:38.044Z,21.50
2019-03-20T06:28:09.942Z,21.40
2019-03-20T06:30:41.793Z,21.40
2019-03-20T06:33:13.683Z,21.50
2019-03-20T06:35:45.577Z,21.40
2019-03-20T06:38:17.430Z,21.30
2019-03-20T06:40:49.267Z,21.40
2019-03-20T06:43:21.127Z,21.50
2019-03-20T06:45:52.967Z,21.30
2019-03-20T06:48:24.918Z,21.30
2019-03-20T06:50:57.882Z,21.30
2019-03-20T06:53:30.169Z,21.20
2019-03-20T06:56:02.037Z,20.80
2019-03-20T06:58:33.888Z,20.80
2019-03-20T07:01:14.189Z,20.90
2019-03-20T07:04:30.112Z,20.70
2019-03-20T07:07:20.951Z,21.30
2019-03-20T07:10:44.071Z,20.70
2019-03-20T07:13:15.923Z,20.90
2019-03-20T07:15:47.800Z,20.80
2019-03-20T07:18:20.602Z,20.60
2019-03-20T07:20:52.490Z,20.40
2019-03-20T07:23:24.280Z,20.70
2019-03-20T07:25:56.324Z,20.50
2019-03-20T07:28:28.169Z,20.60
2019-03-20T07:31:00.014Z,20.70
2019-03-20T07:33:32.234Z,20.70
2019-03-20T07:36:04.326Z,20.60
2019-03-20T07:38:36.164Z,20.60
2019-03-20T07:41:08.332Z,21.30
2019-03-20T07:43:40.188Z,20.80
2019-03-20T07:46:12.053Z,20.80
2019-03-20T07:48:44.721Z,20.80
2019-03-20T07:51:16.603Z,20.50
2019-03-20T07:53:48.428Z,20.90
2019-03-20T07:56:20.319Z,20.30
2019-03-20T07:58:52.194Z,20.40
2019-03-20T08:01:24.112Z,20.50
2019-03-20T08:03:57.235Z,20.30
2019-03-20T08:06:29.074Z,20.10
2019-03-20T08:09:00.911Z,20.90
2019-03-20T08:11:34.108Z,20.90
2019-03-20T08:14:06.063Z,20.20
2019-03-20T08:16:37.917Z,20.50
2019-03-20T08:19:09.810Z,20.00
2019-03-20T08:21:41.697Z,19.80
2019-03-20T08:24:13.535Z,20.20
2019-03-20T08:26:45.670Z,20.00
2019-03-20T08:29:17.770Z,19.70
2019-03-20T08:31:49.612Z,19.20
2019-03-20T08:34:21.551Z,19.20
2019-03-20T08:36:53.454Z,18.70
2019-03-20T08:39:25.368Z,18.30
2019-03-20T08:41:57.538Z,18.10
2019-03-20T08:44:29.473Z,17.20
2019-03-20T08:47:01.320Z,16.20
2019-03-20T08:49:33.296Z,16.30
2019-03-20T08:52:05.133Z,17.10
2019-03-20T08:54:37.035Z,16.40
2019-03-20T08:57:09.166Z,15.90
2019-03-20T08:59:41.071Z,14.40
2019-03-20T09:02:12.921Z,14.80
2019-03-20T09:04:44.743Z,15.20
2019-03-20T09:07:16.633Z,16.20
2019-03-20T09:09:50.792Z,16.10
2019-03-20T09:12:22.187Z,15.50
2019-03-20T09:14:54.044Z,15.60
2019-03-20T09:17:25.905Z,15.40
2019-03-20T09:19:57.800Z,16.00
2019-03-20T09:22:29.696Z,16.00
2019-03-20T09:25:01.575Z,16.30
2019-03-20T09:27:33.735Z,16.10
2019-03-20T09:30:06.702Z,16.40
2019-03-20T09:32:38.634Z,16.50
2019-03-20T09:35:10.893Z,17.00
2019-03-20T09:37:51.299Z,17.30
2019-03-20T09:40:18.012Z,17.40
2019-03-20T09:42:49.886Z,17.20
2019-03-20T09:45:22.125Z,17.00
2019-03-20T09:47:53.993Z,16.70
2019-03-20T09:50:25.864Z,16.90
2019-03-20T09:52:57.779Z,17.90
2019-03-20T09:55:29.671Z,17.60
2019-03-20T09:58:11.141Z,17.20
2019-03-20T10:00:35.207Z,17.40
2019-03-20T10:03:07.089Z,17.40
2019-03-20T10:05:39.003Z,17.80
2019-03-20T10:08:10.838Z,17.50
2019-03-20T10:10:42.746Z,17.30
2019-03-20T10:13:15.063Z,17.40
2019-03-20T10:15:46.934Z,17.10
2019-03-20T10:18:18.859Z,17.30
2019-03-20T10:20:50.805Z,17.30
2019-03-20T10:23:22.693Z,16.40
2019-03-20T10:25:54.586Z,16.50
2019-03-20T10:28:26.754Z,16.40
2019-03-20T10:30:58.609Z,16.90
2019-03-20T10:33:30.474Z,16.60
2019-03-20T10:36:02.378Z,17.30
2019-03-20T10:38:34.249Z,16.10
2019-03-20T10:41:06.103Z,16.50
2019-03-20T10:43:38.269Z,16.60
2019-03-20T10:46:10.149Z,16.90
2019-03-20T10:48:42.040Z,16.20
2019-03-20T10:51:13.933Z,16.70
2019-03-20T10:53:45.762Z,17.10
2019-03-20T10:56:17.615Z,16.50
2019-03-20T10:58:51.329Z,16.00
2019-03-20T11:01:24.291Z,16.40
2019-03-20T11:03:56.333Z,16.10
2019-03-20T11:06:28.299Z,16.30
2019-03-20T11:09:00.156Z,15.80
2019-03-20T11:11:32.088Z,15.50
2019-03-20T11:14:04.216Z,15.50
2019-03-20T11:16:36.118Z,16.20
2019-03-20T11:19:07.966Z,16.60
2019-03-20T11:21:39.825Z,17.10
2019-03-20T11:24:11.795Z,17.10
2019-03-20T11:26:43.825Z,16.60
2019-03-20T11:29:21.316Z,16.50
2019-03-20T11:31:49.264Z,17.50
2019-03-20T11:34:21.076Z,17.90
2019-03-20T11:36:53.081Z,17.70
2019-03-20T11:39:29.574Z,16.80
2019-03-20T11:41:58.515Z,17.10
2019-03-20T11:44:30.618Z,16.50
2019-03-20T11:47:02.622Z,17.50
2019-03-20T11:49:34.501Z,17.40
2019-03-20T11:52:06.581Z,17.30
2019-03-20T11:54:38.484Z,17.30
2019-03-20T11:57:10.356Z,17.20
2019-03-20T11:59:42.642Z,16.80
2019-03-20T12:02:14.513Z,17.60
2019-03-20T12:04:46.399Z,16.00
2019-03-20T12:07:19.234Z,16.80
2019-03-20T12:09:51.128Z,16.90
2019-03-20T12:12:23.003Z,16.60
2019-03-20T12:14:55.299Z,16.60
2019-03-20T12:17:27.175Z,16.40
2019-03-20T12:19:59.271Z,16.20
2019-03-20T12:22:31.151Z,16.10
2019-03-20T12:25:03.028Z,15.50
2019-03-20T12:27:34.875Z,16.00
2019-03-20T12:30:10.444Z,15.50
2019-03-20T12:32:42.374Z,15.80
2019-03-20T12:35:15.712Z,15.50
2019-03-20T12:37:48.234Z,15.70
2019-03-20T12:40:23.904Z,15.90
2019-03-20T12:42:56.092Z,15.40
2019-03-20T12:45:30.775Z,15.30
2019-03-20T12:48:02.711Z,15.40
2019-03-20T12:50:34.587Z,15.30
2019-03-20T12:53:06.734Z,15.70
2019-03-20T12:55:38.704Z,15.80
2019-03-20T12:58:10.639Z,15.50
2019-03-20T13:00:42.899Z,15.40
2019-03-20T13:03:14.838Z,15.00
2019-03-20T13:05:46.665Z,14.80
2019-03-20T13:08:18.559Z,14.50
2019-03-20T13:10:50.483Z,14.20
2019-03-20T13:13:22.450Z,13.70
2019-03-20T13:15:54.337Z,14.10
2019-03-20T13:18:26.167Z,13.90
2019-03-20T13:20:58.077Z,13.60
2019-03-20T13:23:32.634Z,13.50
2019-03-20T13:26:04.924Z,13.10
2019-03-20T13:28:36.855Z,11.90
2019-03-20T13:31:17.157Z,11.50
2019-03-20T13:33:49.393Z,11.50
2019-03-20T13:36:21.670Z,10.80
2019-03-20T13:38:53.734Z,9.80
2019-03-20T13:41:25.619Z,9.70
2019-03-20T13:43:57.445Z,10.10
2019-03-20T13:46:29.621Z,10.40
2019-03-20T13:49:01.435Z,10.30
2019-03-20T13:51:33.446Z,9.50
2019-03-20T13:54:05.343Z,10.60
2019-03-20T13:56:37.280Z,11.10
2019-03-20T13:59:09.190Z,10.30
2019-03-20T14:01:41.268Z,10.20
2019-03-20T14:04:13.327Z,9.90
2019-03-20T14:06:45.363Z,9.90
2019-03-20T14:09:17.252Z,10.00
2019-03-20T14:11:49.092Z,10.10
2019-03-20T14:14:20.898Z,10.10
2019-03-20T14:16:52.964Z,10.00
2019-03-20T14:19:24.764Z,10.00
2019-03-20T14:21:56.542Z,9.60
2019-03-20T14:24:28.304Z,9.30
2019-03-20T14:27:00.112Z,9.30
2019-03-20T14:29:31.902Z,9.10
2019-03-20T14:32:03.902Z,9.50
2019-03-20T14:34:35.679Z,9.40
2019-03-20T14:37:07.627Z,9.10
2019-03-20T14:39:39.601Z,8.90
2019-03-20T14:42:11.423Z,9.10
2019-03-20T14:44:43.259Z,8.80
2019-03-20T14:47:15.365Z,8.70
2019-03-20T14:49:47.147Z,8.80
2019-03-20T14:52:18.993Z,8.60
2019-03-20T14:54:50.867Z,8.80
2019-03-20T14:57:22.642Z,8.50
2019-03-20T14:59:54.518Z,8.10
2019-03-20T15:02:26.625Z,8.00
2019-03-20T15:04:58.603Z,8.40
2019-03-20T15:07:30.451Z,8.40
2019-03-20T15:10:02.303Z,8.60
2019-03-20T15:12:34.209Z,8.50
2019-03-20T15:15:11.153Z,8.60
2019-03-20T15:17:43.380Z,8.70
2019-03-20T15:20:15.298Z,9.00
2019-03-20T15:22:47.341Z,8.60
2019-03-20T15:25:19.448Z,8.60
2019-03-20T15:27:51.328Z,8.70
2019-03-20T15:30:23.961Z,9.00
2019-03-20T15:32:56.045Z,9.10
2019-03-20T15:35:27.942Z,9.00
2019-03-20T15:37:59.754Z,9.10
2019-03-20T15:40:31.872Z,9.40
2019-03-20T15:43:03.826Z,9.40
2019-03-20T15:45:35.724Z,9.20
2019-03-20T15:48:07.810Z,9.40
2019-03-20T15:50:39.626Z,9.40
2019-03-20T15:53:11.571Z,10.00
2019-03-20T15:55:43.742Z,10.50
2019-03-20T15:58:15.675Z,10.80
2019-03-20T16:00:47.551Z,11.20
2019-03-20T16:03:20.397Z,11.60
2019-03-20T16:05:52.359Z,12.00
2019-03-20T16:08:24.634Z,12.20
2019-03-20T16:11:05.998Z,12.50
2019-03-20T16:13:30.229Z,12.80
2019-03-20T16:16:02.070Z,12.80
2019-03-20T16:18:34.310Z,13.50
2019-03-20T16:21:06.168Z,13.10
2019-03-20T16:23:38.177Z,13.50
2019-03-20T16:26:10.166Z,13.30
2019-03-20T16:28:42.158Z,13.70
2019-03-20T16:31:14.170Z,13.80
2019-03-20T16:33:47.273Z,14.10
2019-03-20T16:36:19.210Z,14.00
2019-03-20T16:38:52.206Z,14.30
2019-03-20T16:41:24.102Z,14.20
2019-03-20T16:43:55.877Z,14.00
2019-03-20T16:46:27.779Z,14.40
2019-03-20T16:48:59.905Z,14.20
2019-03-20T16:51:31.723Z,14.20
2019-03-20T16:54:04.545Z,14.30
2019-03-20T16:56:37.445Z,14.50
2019-03-20T16:59:09.431Z,14.70
2019-03-20T17:01:41.609Z,14.90
2019-03-20T17:04:13.988Z,14.70
2019-03-20T17:06:45.825Z,15.00
2019-03-20T17:09:17.771Z,14.70
2019-03-20T17:11:49.587Z,15.10
2019-03-20T17:14:21.459Z,15.30
2019-03-20T17:16:53.370Z,15.30
2019-03-20T17:19:25.876Z,15.20
2019-03-20T17:21:57.844Z,15.30
2019-03-20T17:24:29.974Z,15.40
2019-03-20T17:27:02.178Z,15.30
2019-03-20T17:29:34.171Z,15.50
2019-03-20T17:32:06.195Z,15.50
2019-03-20T17:34:38.230Z,15.40
2019-03-20T17:37:10.087Z,15.40
2019-03-20T17:39:41.954Z,15.70
2019-03-20T17:42:14.218Z,15.90
2019-03-20T17:44:46.240Z,16.00
2019-03-20T17:47:18.185Z,15.80
2019-03-20T17:49:50.441Z,15.50
2019-03-20T17:52:22.347Z,15.30
2019-03-20T17:54:55.323Z,15.30
2019-03-20T17:57:27.218Z,15.00
2019-03-20T17:59:59.068Z,15.10
2019-03-20T18:02:30.910Z,15.10
2019-03-20T18:05:02.995Z,15.20
2019-03-20T18:07:34.882Z,15.20
2019-03-20T18:10:07.207Z,15.20
2019-03-20T18:12:39.160Z,15.70
2019-03-20T18:15:12.646Z,15.60
2019-03-20T18:17:44.480Z,15.70
2019-03-20T18:20:16.616Z,15.80
2019-03-20T18:22:48.629Z,15.80
2019-03-20T18:25:20.584Z,15.80
2019-03-20T18:27:53.814Z,15.70
2019-03-20T18:30:25.979Z,16.40
2019-03-20T18:32:57.844Z,15.90
2019-03-20T18:35:30.679Z,15.50
2019-03-20T18:38:02.567Z,16.00
2019-03-20T18:40:34.475Z,15.90
2019-03-20T18:43:06.476Z,15.90
2019-03-20T18:45:38.602Z,15.70
2019-03-20T18:48:10.513Z,15.60
2019-03-20T18:50:42.551Z,16.00
2019-03-20T18:53:14.675Z,16.30
2019-03-20T18:55:46.728Z,16.10
2019-03-20T18:58:18.595Z,16.30
2019-03-20T19:00:50.810Z,16.20
2019-03-20T19:03:22.884Z,16.00
2019-03-20T19:06:09.067Z,16.00
2019-03-20T19:08:41.174Z,16.10
2019-03-20T19:11:13.238Z,16.00
2019-03-20T19:13:45.435Z,15.90
2019-03-20T19:16:17.816Z,15.90
2019-03-20T19:18:51.395Z,15.60
2019-03-20T19:21:23.720Z,15.60
2019-03-20T19:23:55.572Z,15.50
2019-03-20T19:26:27.479Z,15.60
2019-03-20T19:28:59.404Z,15.80
2019-03-20T19:31:31.323Z,15.80
2019-03-20T19:34:04.596Z,15.70
2019-03-20T19:36:37.418Z,15.90
2019-03-20T19:39:11.364Z,16.20
2019-03-20T19:41:43.271Z,16.30
2019-03-20T19:44:15.400Z,16.30
2019-03-20T19:46:47.349Z,16.50
2019-03-20T19:49:19.235Z,16.20
2019-03-20T19:51:51.525Z,16.10
2019-03-20T19:54:23.407Z,15.80
2019-03-20T19:56:55.426Z,15.50
2019-03-20T19:59:27.498Z,15.50
2019-03-20T20:01:59.571Z,15.40
2019-03-20T20:04:31.576Z,15.20
2019-03-20T20:07:04.002Z,15.50
2019-03-20T20:09:35.905Z,15.80
2019-03-20T20:12:07.896Z,16.00
2019-03-20T20:14:39.765Z,16.40
2019-03-20T20:17:11.725Z,16.50
2019-03-20T20:19:43.517Z,16.80
2019-03-20T20:22:15.533Z,16.70
2019-03-20T20:24:47.408Z,16.70
2019-03-20T20:27:19.301Z,16.50
2019-03-20T20:29:52.313Z,16.70
2019-03-20T20:32:24.497Z,17.10
2019-03-20T20:34:56.400Z,17.40
2019-03-20T20:37:29.179Z,17.60
2019-03-20T20:40:01.115Z,17.70
2019-03-20T20:42:42.526Z,17.40
2019-03-20T20:45:08.165Z,17.20
2019-03-20T20:47:41.001Z,17.20
2019-03-20T20:50:13.875Z,17.40
2019-03-20T20:52:46.168Z,17.50
2019-03-20T20:55:18.112Z,17.20
2019-03-20T20:57:50.011Z,17.10
2019-03-20T21:00:22.270Z,17.00
2019-03-20T21:02:54.441Z,16.90
2019-03-20T21:05:26.300Z,17.00
2019-03-20T21:07:58.479Z,17.10
2019-03-20T21:10:30.312Z,17.30
2019-03-20T21:13:02.132Z,17.30
2019-03-20T21:15:50.042Z,17.20
2019-03-20T21:19:33.600Z,17.30
2019-03-20T21:23:02.774Z,17.50
2019-03-20T21:25:35.533Z,17.40
2019-03-20T21:28:59.339Z,17.30
2019-03-20T21:32:02.453Z,17.50
2019-03-20T21:35:41.867Z,17.10
2019-03-20T21:38:12.306Z,17.50
2019-03-20T21:41:56.325Z,17.30
2019-03-20T21:45:26.059Z,17.20
2019-03-20T21:47:58.756Z,16.80
2019-03-20T21:51:11.003Z,16.80
2019-03-20T21:54:43.915Z,17.00
2019-03-20T21:57:52.131Z,17.20
2019-03-20T22:01:21.718Z,17.40
2019-03-20T22:03:54.357Z,17.20
2019-03-20T22:07:23.751Z,16.90
2019-03-20T22:10:53.089Z,16.90
2019-03-20T22:13:58.067Z,16.80
2019-03-20T22:17:50.711Z,17.10
2019-03-20T22:20:53.537Z,17.10
2019-03-20T22:24:28.316Z,17.40
2019-03-20T22:28:33.216Z,17.30
2019-03-20T22:31:05.811Z,17.60
2019-03-20T22:34:31.456Z,17.30
2019-03-20T22:37:04.161Z,17.20
2019-03-20T22:40:56.001Z,17.20
2019-03-20T22:43:42.896Z,17.00
2019-03-20T22:47:34.936Z,17.00
2019-03-20T22:50:22.669Z,17.10
2019-03-20T22:53:56.408Z,16.80
2019-03-20T22:57:07.725Z,16.80
2019-03-20T22:59:40.363Z,17.20
2019-03-20T23:02:32.144Z,17.20
2019-03-20T23:05:04.949Z,17.00
2019-03-20T23:07:37.623Z,17.20
2019-03-20T23:10:13.885Z,17.00
2019-03-20T23:12:48.105Z,17.00
2019-03-20T23:15:21.130Z,17.00
2019-03-20T23:17:53.862Z,17.30
2019-03-20T23:20:27.118Z,17.30
2019-03-20T23:22:59.713Z,17.20
2019-03-20T23:25:32.301Z,16.80
2019-03-20T23:28:04.968Z,17.10
2019-03-20T23:30:37.590Z,17.60
2019-03-20T23:33:10.234Z,17.90
2019-03-20T23:35:42.904Z,17.80
2019-03-20T23:38:15.522Z,17.60
2019-03-20T23:40:48.190Z,18.00
2019-03-20T23:43:20.990Z,17.80
2019-03-20T23:45:53.572Z,17.50
2019-03-20T23:48:38.441Z,17.50
2019-03-20T23:51:17.169Z,17.30
2019-03-20T23:53:53.382Z,17.80
2019-03-20T23:56:27.700Z,17.40
2019-03-20T23:59:00.365Z,17.00
